Dobrodošli na spletni strani vremenske postaje Senovo. Vse informacije so informativnega značaja, saj vremenska postaja ni del državne mreže meteoroloških postaj. AKTUALNIH OBVESTIL NI.


Sneg/Led Od: 23-02-2018 00:00 Do: 23:59 Opozorilo za: Sneg/Led Stopnja: Rumena info button

Pogled proti Armezu več informacij Pogled proti Armezu


Lisca več informacij Lisca


Radar strel več informacij blitzortung!


opozorilo za sneg/led več informacij rain snow radar


Obiščite še:

Template documentation
and downloads

And another site



Weather Underground, zgodovina - Tekstovno

Dnevni povzetek za Januar 13, 2018 Enote:  Angleško    Metrično   Obe
« Predhodni Dan
Naslednji Dan »
Dnevni Tedenski Mesečni Letni Po meri
  Višja: Nižja: Povprečje:
Temperatura: TemperatureC °F 2.6 °F 3.8 °F
Točka rosišča: DewpointC °F 0.8 °F 1.9 °F
Vlažnost: Humidity % 86 % 87 %
Hitrost vetra: WindSpeedKMH mph 2.7 mph 6.5 mph
Sunki vetra: WindSpeedGustKMH mph - -
Veter:- - ENE
Zračni tlak: PressurehPa in 1021.9 in -
Padavine: 0.0 in    
Historical Graphs
 
 
Tabelarni podarki za Januar 13, 2018
Čas Temperatura Točka rosišča Zračni tlak Veter Hitrost vetra Sunki vetra Vlažnost Intenziteta padavin (urna)
TemperatureC °F DewpointC °F PressurehPa in Calm     Humidity % HourlyPrecipMM in
00:03 4.8 °F 2.7 °F 1022.9 in ENE 6.3 mph 10.1 mph 86 % 0.0 in
00:09 4.8 °F 2.7 °F 1022.9 in East 5.8 mph 13.0 mph 86 % 0.0 in
00:20 4.7 °F 2.6 °F 1022.9 in East 6.9 mph 14.0 mph 86 % 0.0 in
00:31 4.8 °F 2.7 °F 1021.9 in NE 9.3 mph 21.2 mph 86 % 0.0 in
00:36 4.8 °F 2.7 °F 1021.9 in NE 11.1 mph 21.2 mph 86 % 0.0 in
00:41 4.8 °F 2.7 °F 1021.9 in ENE 9.5 mph 21.2 mph 86 % 0.0 in
00:50 4.7 °F 2.6 °F 1021.9 in East 5.8 mph 11.9 mph 86 % 0.0 in
00:57 4.7 °F 2.6 °F 1021.9 in East 5.6 mph 10.1 mph 86 % 0.0 in
01:02 4.7 °F 2.6 °F 1021.9 in ENE 5.0 mph 10.1 mph 86 % 0.0 in
01:29 4.6 °F 2.4 °F 1022.9 in NNE 6.3 mph 10.8 mph 86 % 0.0 in
01:49 4.6 °F 2.4 °F 1022.9 in NE 5.0 mph 10.1 mph 86 % 0.0 in
01:56 4.6 °F 2.4 °F 1023.9 in ENE 5.8 mph 11.6 mph 86 % 0.0 in
02:03 4.6 °F 2.4 °F 1023.9 in ESE 2.7 mph 7.9 mph 86 % 0.0 in
02:09 4.6 °F 2.4 °F 1023.9 in East 2.7 mph 10.1 mph 86 % 0.0 in
02:28 4.6 °F 2.6 °F 1022.9 in ENE 5.5 mph 13.7 mph 87 % 0.0 in
02:39 4.6 °F 2.6 °F 1022.9 in ENE 5.6 mph 15.8 mph 87 % 0.0 in
02:46 4.6 °F 2.6 °F 1022.9 in ENE 6.0 mph 13.0 mph 87 % 0.0 in
02:54 4.6 °F 2.6 °F 1022.9 in East 3.9 mph 7.9 mph 87 % 0.0 in
03:07 4.6 °F 2.6 °F 1021.9 in East 5.3 mph 9.7 mph 87 % 0.0 in
03:12 4.6 °F 2.6 °F 1022.9 in East 4.7 mph 6.9 mph 87 % 0.0 in
03:19 4.6 °F 2.6 °F 1022.9 in East 4.8 mph 6.9 mph 87 % 0.0 in
03:25 4.6 °F 2.6 °F 1022.9 in East 4.3 mph 8.7 mph 87 % 0.0 in
03:30 4.6 °F 2.6 °F 1022.9 in East 4.2 mph 8.7 mph 87 % 0.0 in
03:37 4.6 °F 2.6 °F 1022.9 in ENE 3.9 mph 6.4 mph 87 % 0.0 in
03:54 4.6 °F 2.6 °F 1023.9 in ENE 6.3 mph 12.2 mph 87 % 0.0 in
03:59 4.6 °F 2.6 °F 1022.9 in East 6.8 mph 12.2 mph 87 % 0.0 in
04:05 4.5 °F 2.5 °F 1022.9 in ENE 6.3 mph 11.9 mph 87 % 0.0 in
04:12 4.5 °F 2.5 °F 1022.9 in ENE 6.4 mph 9.3 mph 87 % 0.0 in
04:21 4.5 °F 2.5 °F 1022.9 in ENE 7.1 mph 15.1 mph 87 % 0.0 in
04:31 4.5 °F 2.5 °F 1022.9 in East 4.7 mph 10.5 mph 87 % 0.0 in
04:36 4.4 °F 2.4 °F 1022.9 in ENE 5.3 mph 10.5 mph 87 % 0.0 in
04:42 4.4 °F 2.4 °F 1022.9 in NE 6.0 mph 10.5 mph 87 % 0.0 in
04:54 4.4 °F 2.4 °F 1022.9 in NE 6.9 mph 13.0 mph 87 % 0.0 in
05:00 4.4 °F 2.4 °F 1022.9 in NE 5.5 mph 8.7 mph 87 % 0.0 in
05:20 4.3 °F 2.3 °F 1022.9 in East 5.5 mph 12.6 mph 87 % 0.0 in
05:33 4.3 °F 2.3 °F 1022.9 in ENE 4.8 mph 9.0 mph 87 % 0.0 in
05:44 4.2 °F 2.2 °F 1022.9 in East 6.6 mph 10.5 mph 87 % 0.0 in
05:50 4.2 °F 2.2 °F 1022.9 in East 7.6 mph 13.0 mph 87 % 0.0 in
05:59 4.2 °F 2.2 °F 1022.9 in ENE 5.1 mph 9.0 mph 87 % 0.0 in
06:15 4.1 °F 2.1 °F 1022.9 in ENE 5.0 mph 10.1 mph 87 % 0.0 in
06:21 4.1 °F 2.1 °F 1022.9 in East 5.8 mph 11.6 mph 87 % 0.0 in
06:36 4.0 °F 2.1 °F 1022.9 in East 7.6 mph 11.9 mph 87 % 0.0 in
06:44 4.0 °F 2.1 °F 1022.9 in East 7.2 mph 13.7 mph 87 % 0.0 in
06:54 4.0 °F 2.1 °F 1022.9 in East 7.2 mph 13.0 mph 87 % 0.0 in
07:01 4.0 °F 2.1 °F 1022.9 in East 8.8 mph 13.7 mph 87 % 0.0 in
07:09 3.9 °F 2.1 °F 1022.9 in East 7.9 mph 16.9 mph 88 % 0.0 in
07:16 4.0 °F 2.2 °F 1022.9 in East 7.6 mph 16.9 mph 88 % 0.0 in
07:22 4.0 °F 2.2 °F 1022.9 in East 7.2 mph 10.5 mph 88 % 0.0 in
07:28 3.9 °F 2.1 °F 1021.9 in East 8.4 mph 13.7 mph 88 % 0.0 in
07:34 3.9 °F 2.1 °F 1021.9 in East 9.2 mph 15.4 mph 88 % 0.0 in
07:41 3.9 °F 2.1 °F 1021.9 in East 8.5 mph 16.6 mph 88 % 0.0 in
07:55 3.9 °F 2.1 °F 1021.9 in East 6.9 mph 16.3 mph 88 % 0.0 in
08:02 3.9 °F 2.1 °F 1022.9 in East 9.5 mph 16.3 mph 88 % 0.0 in
08:08 3.9 °F 2.3 °F 1022.9 in East 9.0 mph 13.7 mph 89 % 0.0 in
08:24 3.8 °F 2.2 °F 1022.9 in ENE 8.7 mph 16.9 mph 89 % 0.0 in
08:30 3.8 °F 2.2 °F 1022.9 in East 8.0 mph 12.2 mph 89 % 0.0 in
08:36 3.8 °F 2.2 °F 1022.9 in East 10.0 mph 20.6 mph 89 % 0.0 in
08:41 3.8 °F 2.2 °F 1022.9 in ENE 9.3 mph 13.7 mph 89 % 0.0 in
08:51 3.8 °F 2.2 °F 1022.9 in East 10.1 mph 24.5 mph 89 % 0.0 in
09:01 3.8 °F 2.2 °F 1022.9 in East 8.4 mph 19.1 mph 89 % 0.0 in
09:09 3.8 °F 2.2 °F 1022.9 in ENE 9.0 mph 15.8 mph 89 % 0.0 in
09:29 3.9 °F 2.3 °F 1022.9 in ENE 8.2 mph 16.3 mph 89 % 0.0 in
09:36 3.9 °F 2.3 °F 1022.9 in NE 7.1 mph 13.0 mph 89 % 0.0 in
09:48 4.0 °F 2.3 °F 1022.9 in NE 5.6 mph 12.2 mph 89 % 0.0 in
10:01 4.0 °F 2.3 °F 1022.9 in NE 5.3 mph 14.0 mph 89 % 0.0 in
10:10 4.1 °F 2.4 °F 1022.9 in NE 5.6 mph 14.0 mph 89 % 0.0 in
10:18 4.1 °F 2.3 °F 1022.9 in NE 5.3 mph 10.1 mph 88 % 0.0 in
10:47 4.2 °F 2.4 °F 1022.9 in ENE 8.5 mph 12.6 mph 88 % 0.0 in
10:57 4.3 °F 2.5 °F 1021.9 in NNE 7.4 mph 17.7 mph 88 % 0.0 in
11:06 4.4 °F 2.6 °F 1021.9 in East 7.9 mph 20.1 mph 88 % 0.0 in
11:18 4.5 °F 2.7 °F 1021.9 in ESE 8.8 mph 19.5 mph 88 % 0.0 in
11:28 4.6 °F 2.8 °F 1022.9 in East 8.2 mph 16.3 mph 88 % 0.0 in
11:36 4.5 °F 2.7 °F 1022.9 in NE 5.1 mph 9.0 mph 88 % 0.0 in
11:50 4.5 °F 2.5 °F 1021.9 in ENE 4.5 mph 11.6 mph 87 % 0.0 in
11:55 4.4 °F 2.4 °F 1021.9 in ENE 5.6 mph 13.7 mph 87 % 0.0 in
12:23 4.2 °F 2.1 °F 1022.9 in ENE 7.1 mph 14.0 mph 86 % 0.0 in
12:33 4.3 °F 2.2 °F 1022.9 in East 6.0 mph 9.7 mph 86 % 0.0 in
12:43 4.1 °F 1.9 °F 1022.9 in ENE 7.2 mph 13.7 mph 86 % 0.0 in
12:52 4.1 °F 1.9 °F 1022.9 in ENE 6.9 mph 11.9 mph 86 % 0.0 in
12:57 4.1 °F 1.9 °F 1022.9 in East 6.9 mph 14.3 mph 86 % 0.0 in
13:04 4.1 °F 1.9 °F 1022.9 in East 7.6 mph 13.7 mph 86 % 0.0 in
13:21 4.1 °F 1.9 °F 1022.9 in East 6.8 mph 12.6 mph 86 % 0.0 in
13:26 4.0 °F 1.9 °F 1022.9 in ENE 8.0 mph 17.7 mph 86 % 0.0 in
13:38 4.0 °F 1.9 °F 1022.9 in East 7.6 mph 15.4 mph 86 % 0.0 in
13:47 4.0 °F 1.9 °F 1022.9 in ENE 7.4 mph 14.0 mph 86 % 0.0 in
13:58 4.0 °F 1.9 °F 1022.9 in East 7.1 mph 11.6 mph 86 % 0.0 in
14:06 4.0 °F 1.9 °F 1022.9 in ENE 6.8 mph 10.1 mph 86 % 0.0 in
14:20 4.0 °F 1.9 °F 1022.9 in East 6.1 mph 11.6 mph 86 % 0.0 in
14:37 3.9 °F 1.9 °F 1022.9 in ENE 5.5 mph 12.2 mph 87 % 0.0 in
14:48 3.9 °F 1.9 °F 1022.9 in ENE 6.3 mph 11.6 mph 87 % 0.0 in
14:56 3.9 °F 1.9 °F 1022.9 in ENE 7.1 mph 13.7 mph 87 % 0.0 in
15:06 3.9 °F 1.9 °F 1022.9 in NE 5.1 mph 13.7 mph 87 % 0.0 in
15:11 3.8 °F 1.8 °F 1022.9 in ENE 6.4 mph 13.0 mph 87 % 0.0 in
15:24 3.8 °F 1.8 °F 1022.9 in ENE 6.6 mph 13.7 mph 87 % 0.0 in
15:49 3.7 °F 1.7 °F 1022.9 in NE 6.8 mph 15.1 mph 87 % 0.0 in
15:56 3.7 °F 1.7 °F 1022.9 in NE 6.4 mph 10.1 mph 87 % 0.0 in
16:05 3.6 °F 1.6 °F 1022.9 in NE 7.2 mph 14.0 mph 87 % 0.0 in
16:10 3.6 °F 1.6 °F 1022.9 in NE 4.7 mph 11.1 mph 87 % 0.0 in
16:19 3.6 °F 1.6 °F 1022.9 in NE 4.2 mph 9.3 mph 87 % 0.0 in
16:30 3.6 °F 1.8 °F 1022.9 in ENE 5.0 mph 9.3 mph 88 % 0.0 in
16:36 3.6 °F 1.8 °F 1022.9 in NE 5.1 mph 9.3 mph 88 % 0.0 in
16:54 3.6 °F 1.8 °F 1022.9 in ENE 4.8 mph 9.7 mph 88 % 0.0 in
17:02 3.6 °F 1.8 °F 1022.9 in East 6.1 mph 14.0 mph 88 % 0.0 in
17:10 3.6 °F 1.8 °F 1022.9 in East 3.9 mph 9.7 mph 88 % 0.0 in
17:23 3.6 °F 1.8 °F 1022.9 in East 3.1 mph 10.5 mph 88 % 0.0 in
17:30 3.6 °F 1.8 °F 1022.9 in East 5.6 mph 10.5 mph 88 % 0.0 in
17:54 3.5 °F 1.7 °F 1022.9 in ENE 4.8 mph 9.0 mph 88 % 0.0 in
18:00 3.5 °F 1.6 °F 1023.9 in East 5.1 mph 10.1 mph 87 % 0.0 in
18:10 3.5 °F 1.6 °F 1023.9 in East 6.9 mph 18.0 mph 87 % 0.0 in
18:19 3.5 °F 1.6 °F 1022.9 in East 7.6 mph 16.3 mph 87 % 0.0 in
18:24 3.4 °F 1.4 °F 1022.9 in East 7.6 mph 16.3 mph 87 % 0.0 in
18:33 3.4 °F 1.4 °F 1021.9 in East 6.8 mph 11.6 mph 87 % 0.0 in
18:42 3.4 °F 1.4 °F 1021.9 in ENE 4.8 mph 9.7 mph 87 % 0.0 in
19:00 3.3 °F 1.3 °F 1022.9 in East 5.0 mph 9.7 mph 87 % 0.0 in
19:19 3.3 °F 1.3 °F 1022.9 in ENE 8.7 mph 16.3 mph 87 % 0.0 in
19:31 3.3 °F 1.3 °F 1022.9 in East 6.3 mph 11.9 mph 87 % 0.0 in
19:37 3.3 °F 1.3 °F 1022.9 in East 5.8 mph 11.9 mph 87 % 0.0 in
19:43 3.2 °F 1.2 °F 1022.9 in ENE 8.0 mph 13.7 mph 87 % 0.0 in
19:49 3.2 °F 1.2 °F 1022.9 in ENE 8.7 mph 16.3 mph 87 % 0.0 in
20:01 3.1 °F 1.2 °F 1021.9 in East 6.4 mph 11.9 mph 87 % 0.0 in
20:07 3.1 °F 1.2 °F 1021.9 in ENE 6.4 mph 10.1 mph 87 % 0.0 in
20:17 3.1 °F 1.2 °F 1022.9 in East 6.4 mph 12.2 mph 87 % 0.0 in
20:27 3.1 °F 1.2 °F 1022.9 in East 7.9 mph 14.3 mph 87 % 0.0 in
20:45 3.0 °F 1.1 °F 1022.9 in ENE 7.7 mph 13.7 mph 87 % 0.0 in
20:52 3.0 °F 1.1 °F 1022.9 in ENE 7.2 mph 14.0 mph 87 % 0.0 in
20:59 3.0 °F 1.1 °F 1022.9 in ENE 8.5 mph 13.7 mph 87 % 0.0 in
21:05 3.0 °F 1.1 °F 1022.9 in East 8.5 mph 13.7 mph 87 % 0.0 in
21:22 3.0 °F 1.1 °F 1022.9 in ENE 8.8 mph 13.0 mph 87 % 0.0 in
21:32 2.9 °F 0.9 °F 1022.9 in ENE 9.3 mph 14.8 mph 87 % 0.0 in
21:39 2.9 °F 0.9 °F 1022.9 in ENE 8.2 mph 14.8 mph 87 % 0.0 in
21:47 2.8 °F 0.8 °F 1021.9 in ENE 7.9 mph 13.7 mph 87 % 0.0 in
21:52 2.8 °F 0.8 °F 1021.9 in ENE 7.9 mph 13.7 mph 87 % 0.0 in
21:59 2.8 °F 0.8 °F 1022.9 in ENE 6.6 mph 11.9 mph 87 % 0.0 in
22:06 2.8 °F 0.8 °F 1022.9 in ENE 6.6 mph 11.9 mph 87 % 0.0 in
22:15 2.8 °F 0.8 °F 1021.9 in ENE 7.2 mph 12.6 mph 87 % 0.0 in
22:28 2.7 °F 0.8 °F 1021.9 in ENE 5.3 mph 10.1 mph 87 % 0.0 in
22:40 2.7 °F 0.8 °F 1021.9 in NE 4.5 mph 14.8 mph 87 % 0.0 in
22:48 2.7 °F 0.9 °F 1021.9 in East 5.5 mph 10.8 mph 88 % 0.0 in
22:55 2.7 °F 0.9 °F 1021.9 in East 6.1 mph 11.6 mph 88 % 0.0 in
23:13 2.7 °F 0.9 °F 1021.9 in ENE 4.3 mph 6.9 mph 88 % 0.0 in
23:24 2.7 °F 0.9 °F 1021.9 in ENE 3.9 mph 6.9 mph 88 % 0.0 in
23:29 2.7 °F 0.9 °F 1021.9 in ENE 3.2 mph 7.9 mph 88 % 0.0 in
23:36 2.6 °F 0.8 °F 1021.9 in NE 3.5 mph 9.0 mph 88 % 0.0 in
23:44 2.6 °F 0.8 °F 1023.9 in ENE 4.0 mph 9.0 mph 88 % 0.0 in
Vremenska postaja Senovo
Podatki zbrani iz Weather Underground - 2 mb

Script developed by  Jim McMurry - jmcmurry@mwt.net Adapted for the template by  Wim van der Kuil - Leuven-Template.eu

Vremenski podatki so objavljeni na:

European Weather Network

WeatherCloud

Weather Underground

AWEKAS

HAMweather, WeatherForYou, PWS Weather

MapView

Geostik

Slovenia weather network

Oprema, ki se uporablja:

Vremenski program
Cumulus

Vremenski server
Asus

Cumulus

Asus